createdAt,value
2024-05-09T00:00:42.635Z,11.2440
2024-05-09T00:01:43.811Z,11.2439
2024-05-09T00:02:44.679Z,11.2441
2024-05-09T00:03:46.072Z,11.2473
2024-05-09T00:04:47.088Z,11.2537
2024-05-09T00:05:47.792Z,11.2591
2024-05-09T00:06:48.457Z,11.2636
2024-05-09T00:07:49.009Z,11.2651
2024-05-09T00:08:49.670Z,11.2643
2024-05-09T00:09:51.355Z,11.2575
2024-05-09T00:10:52.078Z,11.2518
2024-05-09T00:11:52.775Z,11.2460
2024-05-09T00:12:53.258Z,11.2442
2024-05-09T00:13:53.969Z,11.2412
2024-05-09T00:14:54.490Z,11.2377
2024-05-09T00:15:56.359Z,11.2344
2024-05-09T00:16:57.170Z,11.2330
2024-05-09T00:17:57.997Z,11.2326
2024-05-09T00:18:58.936Z,11.2316
2024-05-09T00:19:59.703Z,11.2290
2024-05-09T00:21:00.594Z,11.2282
2024-05-09T00:22:01.483Z,11.2255
2024-05-09T00:23:02.221Z,11.2223
2024-05-09T00:24:03.478Z,11.2173
2024-05-09T00:25:04.194Z,11.2112
2024-05-09T00:26:04.877Z,11.2071
2024-05-09T00:27:05.775Z,11.2012
2024-05-09T00:28:09.055Z,11.1963
2024-05-09T00:29:10.055Z,11.1921
2024-05-09T00:30:14.509Z,11.1881
2024-05-09T00:31:18.346Z,11.1801
2024-05-09T00:32:19.480Z,11.1734
2024-05-09T00:33:20.855Z,11.1662
2024-05-09T00:34:22.148Z,11.1591
2024-05-09T00:35:23.623Z,11.1517
2024-05-09T00:36:24.765Z,11.1435
2024-05-09T00:37:25.841Z,11.1302
2024-05-09T00:38:26.989Z,11.1189
2024-05-09T00:39:28.163Z,11.1111
2024-05-09T00:40:35.766Z,11.1026
2024-05-09T00:41:36.639Z,11.0959
2024-05-09T00:42:38.805Z,11.0891
2024-05-09T00:43:40.062Z,11.0796
2024-05-09T00:44:41.318Z,11.0723
2024-05-09T00:45:42.607Z,11.0675
2024-05-09T00:46:43.905Z,11.0649
2024-05-09T00:47:45.201Z,11.0614
2024-05-09T00:48:46.552Z,11.0617
2024-05-09T00:49:47.664Z,11.0626
2024-05-09T00:50:48.854Z,11.0634
2024-05-09T00:51:49.824Z,11.0669
2024-05-09T00:52:50.892Z,11.0703
2024-05-09T00:53:51.856Z,11.0737
2024-05-09T00:54:52.736Z,11.0790
2024-05-09T00:55:53.581Z,11.0841
2024-05-09T00:56:54.258Z,11.0898
2024-05-09T00:57:55.082Z,11.0955
2024-05-09T00:58:55.841Z,11.1010
2024-05-09T00:59:56.906Z,11.1058
2024-05-09T01:00:57.508Z,11.1112
2024-05-09T01:01:58.295Z,11.1171
2024-05-09T01:02:59.132Z,11.1239
2024-05-09T01:03:59.834Z,11.1319
2024-05-09T01:05:00.562Z,11.1389
2024-05-09T01:06:01.178Z,11.1480
2024-05-09T01:07:01.811Z,11.1570
2024-05-09T01:08:02.453Z,11.1653
2024-05-09T01:09:03.026Z,11.1755
2024-05-09T01:10:05.578Z,11.1857
2024-05-09T01:11:07.881Z,11.1960
2024-05-09T01:12:08.606Z,11.2057
2024-05-09T01:13:09.158Z,11.2161
2024-05-09T01:14:09.616Z,11.2260
2024-05-09T01:15:10.028Z,11.2358
2024-05-09T01:16:10.431Z,11.2475
2024-05-09T01:17:10.867Z,11.2580
2024-05-09T01:18:12.408Z,11.2696
2024-05-09T01:19:14.390Z,11.2807
2024-05-09T01:20:20.216Z,11.2912
2024-05-09T01:21:21.526Z,11.3023
2024-05-09T01:22:21.816Z,11.3145
2024-05-09T01:23:22.131Z,11.3261
2024-05-09T01:24:22.517Z,11.3354
2024-05-09T01:25:22.818Z,11.3442
2024-05-09T01:26:23.053Z,11.3547
2024-05-09T01:27:23.596Z,11.3642
2024-05-09T01:28:23.847Z,11.3728
2024-05-09T01:29:24.233Z,11.3801
2024-05-09T01:30:31.836Z,11.3880
2024-05-09T01:31:31.165Z,11.3959
2024-05-09T01:32:31.627Z,11.4026
2024-05-09T01:33:33.273Z,11.4090
2024-05-09T01:34:33.960Z,11.4127
2024-05-09T01:35:34.286Z,11.4159
2024-05-09T01:36:34.682Z,11.4212
2024-05-09T01:37:34.833Z,11.4281
2024-05-09T01:38:35.263Z,11.4339
2024-05-09T01:39:35.730Z,11.4399
2024-05-09T01:40:38.930Z,11.4472
2024-05-09T01:41:40.860Z,11.4552
2024-05-09T01:42:41.076Z,11.4599
2024-05-09T01:43:41.887Z,11.4651
2024-05-09T01:44:42.136Z,11.4675
2024-05-09T01:45:42.415Z,11.4698
2024-05-09T01:46:42.698Z,11.4724
2024-05-09T01:47:43.159Z,11.4763
2024-05-09T01:48:44.558Z,11.4799
2024-05-09T01:49:44.989Z,11.4826
2024-05-09T01:50:45.494Z,11.4854
2024-05-09T01:51:46.023Z,11.4892
2024-05-09T01:52:46.277Z,11.4938
2024-05-09T01:53:46.505Z,11.4991
2024-05-09T01:54:46.697Z,11.5051
2024-05-09T01:55:46.979Z,11.5100
2024-05-09T01:56:47.337Z,11.5168
2024-05-09T01:57:47.599Z,11.5216
2024-05-09T01:58:47.781Z,11.5240
2024-05-09T01:59:48.008Z,11.5234
2024-05-09T02:00:48.319Z,11.5252
2024-05-09T02:01:56.632Z,11.5257
2024-05-09T02:02:54.946Z,11.5264
2024-05-09T02:03:55.412Z,11.5268
2024-05-09T02:04:56.158Z,11.5273
2024-05-09T02:05:56.517Z,11.5278
2024-05-09T02:06:57.132Z,11.5307
2024-05-09T02:07:57.392Z,11.5353
2024-05-09T02:08:57.546Z,11.5397
2024-05-09T02:09:58.110Z,11.5454
2024-05-09T02:10:58.532Z,11.5498
2024-05-09T02:11:59.086Z,11.5521
2024-05-09T02:12:59.334Z,11.5558
2024-05-09T02:13:59.700Z,11.5593
2024-05-09T02:14:59.934Z,11.5637
2024-05-09T02:16:00.217Z,11.5721
2024-05-09T02:17:00.556Z,11.5789
2024-05-09T02:18:01.121Z,11.5866
2024-05-09T02:19:01.739Z,11.5904
2024-05-09T02:20:02.115Z,11.5929
2024-05-09T02:21:02.720Z,11.5951
2024-05-09T02:22:02.950Z,11.5992
2024-05-09T02:23:03.305Z,11.6021
2024-05-09T02:24:03.627Z,11.6052
2024-05-09T02:25:03.841Z,11.6091
2024-05-09T02:26:04.497Z,11.6142
2024-05-09T02:27:04.741Z,11.6200
2024-05-09T02:28:05.080Z,11.6269
2024-05-09T02:29:05.393Z,11.6315
2024-05-09T02:30:15.150Z,11.6370
2024-05-09T02:31:13.510Z,11.6428
2024-05-09T02:32:14.104Z,11.6476
2024-05-09T02:33:15.002Z,11.6511
2024-05-09T02:34:16.310Z,11.6561
2024-05-09T02:35:16.604Z,11.6581
2024-05-09T02:36:16.771Z,11.6605
2024-05-09T02:37:16.937Z,11.6637
2024-05-09T02:38:18.221Z,11.6661
2024-05-09T02:39:18.438Z,11.6695
2024-05-09T02:40:25.665Z,11.6723
2024-05-09T02:41:25.977Z,11.6762
2024-05-09T02:42:27.204Z,11.6786
2024-05-09T02:43:27.464Z,11.6821
2024-05-09T02:44:27.763Z,11.6862
2024-05-09T02:45:28.065Z,11.6888
2024-05-09T02:46:28.287Z,11.6904
2024-05-09T02:47:28.808Z,11.6920
2024-05-09T02:48:29.149Z,11.6945
2024-05-09T02:49:29.573Z,11.6951
2024-05-09T02:50:37.036Z,11.6936
2024-05-09T02:51:36.306Z,11.6947
2024-05-09T02:52:36.596Z,11.6968
2024-05-09T02:53:36.903Z,11.6981
2024-05-09T02:54:37.241Z,11.6992
2024-05-09T02:55:37.533Z,11.6999
2024-05-09T02:56:37.991Z,11.7023
2024-05-09T02:57:38.413Z,11.7013
2024-05-09T02:58:38.795Z,11.7009
2024-05-09T02:59:39.078Z,11.7014
2024-05-09T03:00:41.666Z,11.7010
2024-05-09T03:01:45.743Z,11.6984
2024-05-09T03:02:46.164Z,11.6971
2024-05-09T03:03:46.559Z,11.6952
2024-05-09T03:04:47.024Z,11.6943
2024-05-09T03:05:47.495Z,11.6954
2024-05-09T03:06:47.945Z,11.6954
2024-05-09T03:07:48.124Z,11.6947
2024-05-09T03:08:48.420Z,11.6940
2024-05-09T03:09:48.606Z,11.6942
2024-05-09T03:10:49.097Z,11.6968
2024-05-09T03:11:49.510Z,11.6952
2024-05-09T03:12:49.814Z,11.6951
2024-05-09T03:13:50.024Z,11.6945
2024-05-09T03:14:50.297Z,11.6935
2024-05-09T03:15:50.722Z,11.6933
2024-05-09T03:16:51.066Z,11.6928
2024-05-09T03:17:51.696Z,11.6912
2024-05-09T03:18:52.075Z,11.6888
2024-05-09T03:19:52.413Z,11.6896
2024-05-09T03:20:52.766Z,11.6886
2024-05-09T03:21:52.943Z,11.6860
2024-05-09T03:22:56.323Z,11.6839
2024-05-09T03:23:57.513Z,11.6817
2024-05-09T03:24:57.731Z,11.6811
2024-05-09T03:25:58.057Z,11.6809
2024-05-09T03:26:58.441Z,11.6801
2024-05-09T03:27:58.686Z,11.6798
2024-05-09T03:28:58.969Z,11.6803
2024-05-09T03:29:59.157Z,11.6803
2024-05-09T03:30:59.321Z,11.6810
2024-05-09T03:31:59.732Z,11.6794
2024-05-09T03:33:00.341Z,11.6786
2024-05-09T03:34:00.827Z,11.6769
2024-05-09T03:35:01.087Z,11.6757
2024-05-09T03:36:01.249Z,11.6740
2024-05-09T03:37:01.531Z,11.6752
2024-05-09T03:38:01.777Z,11.6747
2024-05-09T03:39:02.097Z,11.6757
2024-05-09T03:40:02.875Z,11.6751
2024-05-09T03:41:03.271Z,11.6757
2024-05-09T03:42:03.612Z,11.6714
2024-05-09T03:43:03.830Z,11.6665
2024-05-09T03:44:04.083Z,11.6626
2024-05-09T03:45:04.328Z,11.6616
2024-05-09T03:46:04.515Z,11.6609
2024-05-09T03:47:04.785Z,11.6604
2024-05-09T03:48:05.522Z,11.6624
2024-05-09T03:49:05.893Z,11.6650
2024-05-09T03:50:11.962Z,11.6667
2024-05-09T03:51:12.509Z,11.6665
2024-05-09T03:52:12.809Z,11.6666
2024-05-09T03:53:13.184Z,11.6687
2024-05-09T03:54:13.528Z,11.6708
2024-05-09T03:55:13.725Z,11.6718
2024-05-09T03:56:14.020Z,11.6726
2024-05-09T03:57:14.213Z,11.6745
2024-05-09T03:58:14.564Z,11.6752
2024-05-09T03:59:14.896Z,11.6746
2024-05-09T04:00:21.950Z,11.6744
2024-05-09T04:01:21.414Z,11.6766
2024-05-09T04:02:21.811Z,11.6787
2024-05-09T04:03:22.565Z,11.6822
2024-05-09T04:04:22.959Z,11.6856
2024-05-09T04:05:23.192Z,11.6904
2024-05-09T04:06:23.418Z,11.6924
2024-05-09T04:07:23.631Z,11.6935
2024-05-09T04:08:23.901Z,11.6954
2024-05-09T04:09:24.166Z,11.6974
2024-05-09T04:10:31.181Z,11.7005
2024-05-09T04:11:30.467Z,11.7039
2024-05-09T04:12:30.844Z,11.7063
2024-05-09T04:13:31.020Z,11.7107
2024-05-09T04:14:31.319Z,11.7126
2024-05-09T04:15:31.866Z,11.7139
2024-05-09T04:16:32.344Z,11.7150
2024-05-09T04:17:33.006Z,11.7189
2024-05-09T04:18:33.451Z,11.7217
2024-05-09T04:19:33.722Z,11.7236
2024-05-09T04:20:39.007Z,11.7245
2024-05-09T04:21:40.760Z,11.7264
2024-05-09T04:22:52.957Z,11.7263
2024-05-09T04:23:53.162Z,11.7233
2024-05-09T04:24:53.295Z,11.7211
2024-05-09T04:26:05.285Z,11.7197
2024-05-09T04:27:05.389Z,11.7210
2024-05-09T04:28:17.367Z,11.7191
2024-05-09T04:29:17.494Z,11.7183
2024-05-09T04:30:26.221Z,11.7180
2024-05-09T04:31:24.540Z,11.7156
2024-05-09T04:32:25.467Z,11.7126
2024-05-09T04:33:25.802Z,11.7121
2024-05-09T04:34:26.121Z,11.7099
2024-05-09T04:35:26.372Z,11.7087
2024-05-09T04:36:26.568Z,11.7091
2024-05-09T04:37:26.670Z,11.7105
2024-05-09T04:38:26.672Z,11.7109
2024-05-09T04:39:26.817Z,11.7120
2024-05-09T04:40:33.396Z,11.7141
2024-05-09T04:41:34.028Z,11.7155
2024-05-09T04:42:34.175Z,11.7185
2024-05-09T04:43:34.337Z,11.7223
2024-05-09T04:44:34.607Z,11.7271
2024-05-09T04:45:35.072Z,11.7314
2024-05-09T04:46:35.479Z,11.7356
2024-05-09T04:47:35.861Z,11.7392
2024-05-09T04:48:36.221Z,11.7391
2024-05-09T04:49:37.504Z,11.7415
2024-05-09T04:50:39.307Z,11.7434
2024-05-09T04:51:40.356Z,11.7448
2024-05-09T04:52:40.510Z,11.7469
2024-05-09T04:53:40.936Z,11.7464
2024-05-09T04:54:41.258Z,11.7466
2024-05-09T04:55:41.438Z,11.7470
2024-05-09T04:56:41.562Z,11.7505
2024-05-09T04:57:41.754Z,11.7548
2024-05-09T04:58:42.128Z,11.7591
2024-05-09T04:59:42.284Z,11.7635
2024-05-09T05:00:42.613Z,11.7678
2024-05-09T05:01:42.779Z,11.7716
2024-05-09T05:02:43.229Z,11.7770
2024-05-09T05:03:43.596Z,11.7853
2024-05-09T05:04:43.985Z,11.7922
2024-05-09T05:05:45.441Z,11.7984
2024-05-09T05:06:46.348Z,11.8048
2024-05-09T05:07:46.504Z,11.8105
2024-05-09T05:08:46.718Z,11.8147
2024-05-09T05:09:46.847Z,11.8168
2024-05-09T05:10:47.710Z,11.8171
2024-05-09T05:11:48.619Z,11.8196
2024-05-09T05:12:48.763Z,11.8209
2024-05-09T05:13:48.852Z,11.8249
2024-05-09T05:14:49.511Z,11.8279
2024-05-09T05:15:50.536Z,11.8320
2024-05-09T05:16:50.568Z,11.8394
2024-05-09T05:18:02.753Z,11.8475
2024-05-09T05:19:02.946Z,11.8562
2024-05-09T05:20:04.707Z,11.8612
2024-05-09T05:21:05.032Z,11.8700
2024-05-09T05:22:05.129Z,11.8776
2024-05-09T05:23:05.205Z,11.8851
2024-05-09T05:24:05.285Z,11.8946
2024-05-09T05:25:05.361Z,11.9031
2024-05-09T05:26:17.309Z,11.9131
2024-05-09T05:27:17.330Z,11.9231
2024-05-09T05:28:29.270Z,11.9313
2024-05-09T05:29:29.398Z,11.9368
2024-05-09T05:30:34.443Z,11.9408
2024-05-09T05:31:36.467Z,11.9480
2024-05-09T05:32:36.583Z,11.9540
2024-05-09T05:33:36.944Z,11.9605
2024-05-09T05:34:37.044Z,11.9662
2024-05-09T05:35:37.196Z,11.9730
2024-05-09T05:36:37.299Z,11.9776
2024-05-09T05:37:37.374Z,11.9828
2024-05-09T05:38:37.523Z,11.9883
2024-05-09T05:39:37.532Z,11.9937
2024-05-09T05:40:38.764Z,11.9980
2024-05-09T05:41:40.077Z,12.0045
2024-05-09T05:42:40.131Z,12.0111
2024-05-09T05:43:40.315Z,12.0172
2024-05-09T05:44:40.452Z,12.0196
2024-05-09T05:45:40.562Z,12.0230
2024-05-09T05:46:41.659Z,12.0303
2024-05-09T05:47:42.139Z,12.0409
2024-05-09T05:48:42.495Z,12.0506
2024-05-09T05:49:42.683Z,12.0593
2024-05-09T05:50:42.855Z,12.0672
2024-05-09T05:51:43.176Z,12.0739
2024-05-09T05:52:43.440Z,12.0807
2024-05-09T05:53:43.555Z,12.0867
2024-05-09T05:54:43.705Z,12.0957
2024-05-09T05:55:43.890Z,12.1031
2024-05-09T05:56:44.141Z,12.1081
2024-05-09T05:57:44.367Z,12.1089
2024-05-09T05:58:44.575Z,12.1138
2024-05-09T05:59:44.800Z,12.1167
2024-05-09T06:00:45.044Z,12.1205
2024-05-09T06:01:45.472Z,12.1246
2024-05-09T06:02:45.868Z,12.1277
2024-05-09T06:03:47.335Z,12.1295
2024-05-09T06:04:47.646Z,12.1316
2024-05-09T06:05:47.866Z,12.1346
2024-05-09T06:06:48.115Z,12.1383
2024-05-09T06:07:49.287Z,12.1428
2024-05-09T06:08:49.388Z,12.1480
2024-05-09T06:09:50.652Z,12.1540
2024-05-09T06:10:50.805Z,12.1625
2024-05-09T06:11:52.151Z,12.1712
2024-05-09T06:12:52.130Z,12.1773
2024-05-09T06:13:52.236Z,12.1833
2024-05-09T06:14:52.407Z,12.1873
2024-05-09T06:15:52.454Z,12.1970
2024-05-09T06:16:54.102Z,12.2086
2024-05-09T06:17:55.752Z,12.2231
2024-05-09T06:18:56.567Z,12.2387
2024-05-09T06:19:56.615Z,12.2560
2024-05-09T06:20:56.851Z,12.2751
2024-05-09T06:21:56.919Z,12.2948
2024-05-09T06:22:56.926Z,12.3142
2024-05-09T06:23:56.984Z,12.3304
2024-05-09T06:25:08.814Z,12.3472
2024-05-09T06:26:20.716Z,12.3665
2024-05-09T06:27:32.577Z,12.3889
2024-05-09T06:28:32.560Z,12.4123
2024-05-09T06:29:44.384Z,12.4394
2024-05-09T06:30:44.341Z,12.4677
2024-05-09T06:31:59.495Z,12.4971
2024-05-09T06:33:00.366Z,12.5286
2024-05-09T06:34:12.536Z,12.5624
2024-05-09T06:35:12.602Z,12.5955
2024-05-09T06:36:13.521Z,12.6227
2024-05-09T06:37:25.362Z,12.6542
2024-05-09T06:38:37.268Z,12.6901
2024-05-09T06:39:37.183Z,12.7260
2024-05-09T06:40:49.034Z,12.7661
2024-05-09T06:42:00.823Z,12.8015
2024-05-09T06:43:12.682Z,12.8292
2024-05-09T06:44:12.695Z,12.8568
2024-05-09T06:45:12.716Z,12.8810
2024-05-09T06:46:24.525Z,12.9052
2024-05-09T06:47:36.534Z,12.9285
2024-05-09T06:48:36.767Z,12.9465
2024-05-09T06:49:36.815Z,12.9623
2024-05-09T06:50:38.347Z,12.9832
2024-05-09T06:51:39.594Z,13.0088
2024-05-09T06:52:41.517Z,13.0432
2024-05-09T06:53:41.486Z,13.0805
2024-05-09T06:54:41.577Z,13.1108
2024-05-09T06:55:41.428Z,13.1340
2024-05-09T06:56:53.211Z,13.1544
2024-05-09T06:58:04.938Z,13.1697
2024-05-09T06:59:16.743Z,13.1814
2024-05-09T07:00:35.599Z,13.1957
2024-05-09T07:01:35.287Z,13.2061
2024-05-09T07:02:47.066Z,13.2115
2024-05-09T07:03:47.135Z,13.2155
2024-05-09T07:04:47.241Z,13.2198
2024-05-09T07:05:48.569Z,13.2244
2024-05-09T07:06:50.937Z,13.2293
2024-05-09T07:07:50.923Z,13.2316
2024-05-09T07:08:52.448Z,13.2305
2024-05-09T07:09:52.626Z,13.2273
2024-05-09T07:10:52.784Z,13.2268
2024-05-09T07:11:52.984Z,13.2297
2024-05-09T07:12:53.234Z,13.2302
2024-05-09T07:13:53.207Z,13.2313
2024-05-09T07:14:53.583Z,13.2339
2024-05-09T07:15:53.516Z,13.2353
2024-05-09T07:17:05.404Z,13.2345
2024-05-09T07:18:05.497Z,13.2340
2024-05-09T07:19:05.686Z,13.2305
2024-05-09T07:20:08.963Z,13.2240
2024-05-09T07:21:09.366Z,13.2168
2024-05-09T07:22:21.156Z,13.2105
2024-05-09T07:23:32.905Z,13.2144
2024-05-09T07:24:44.778Z,13.2206
2024-05-09T07:25:56.587Z,13.2314
2024-05-09T07:27:08.266Z,13.2445
2024-05-09T07:28:19.960Z,13.2635
2024-05-09T07:29:32.989Z,13.2913
2024-05-09T07:30:35.171Z,13.3211
2024-05-09T07:31:35.215Z,13.3498
2024-05-09T07:32:47.096Z,13.3799
2024-05-09T07:33:47.148Z,13.4116
2024-05-09T07:34:47.192Z,13.4350
2024-05-09T07:35:58.933Z,13.4568
2024-05-09T07:37:10.643Z,13.4777
2024-05-09T07:38:22.512Z,13.4962
2024-05-09T07:39:22.670Z,13.5111
2024-05-09T07:40:36.644Z,13.5248
2024-05-09T07:41:37.486Z,13.5348
2024-05-09T07:42:37.541Z,13.5403
2024-05-09T07:43:50.276Z,13.5465
2024-05-09T07:44:51.277Z,13.5523
2024-05-09T07:46:48.234Z,13.5644
2024-05-09T07:48:14.696Z,13.5771
2024-05-09T07:49:45.087Z,13.5907
2024-05-09T07:53:08.679Z,13.6214
2024-05-09T07:53:33.658Z,13.6279
2024-05-09T07:53:47.320Z,13.6336
2024-05-09T07:54:49.818Z,13.6398
2024-05-09T07:55:51.072Z,13.6432
2024-05-09T07:56:51.221Z,13.6459
2024-05-09T07:57:51.609Z,13.6490
2024-05-09T07:58:52.172Z,13.6532
2024-05-09T07:59:52.294Z,13.6615
2024-05-09T08:00:52.379Z,13.6712
2024-05-09T08:01:52.464Z,13.6797
2024-05-09T08:02:52.730Z,13.6869
2024-05-09T08:03:53.090Z,13.6976
2024-05-09T08:04:53.295Z,13.7118
2024-05-09T08:05:54.453Z,13.7303
2024-05-09T08:06:54.568Z,13.7495
2024-05-09T08:07:55.583Z,13.7674
2024-05-09T08:09:11.116Z,13.7893
2024-05-09T08:10:15.471Z,13.8118
2024-05-09T08:11:18.933Z,13.8291
2024-05-09T08:12:30.847Z,13.8474
2024-05-09T08:13:42.585Z,13.8660
2024-05-09T08:14:56.198Z,13.8821
2024-05-09T08:16:07.972Z,13.8999
2024-05-09T08:17:19.800Z,13.9144
2024-05-09T08:18:31.883Z,13.9241
2024-05-09T08:19:32.006Z,13.9340
2024-05-09T08:20:43.727Z,13.9477
2024-05-09T08:21:55.540Z,13.9625
2024-05-09T08:23:07.336Z,13.9737
2024-05-09T08:24:19.128Z,13.9829
2024-05-09T08:25:30.916Z,13.9911
2024-05-09T08:26:42.682Z,13.9979
2024-05-09T08:27:54.452Z,14.0001
2024-05-09T08:28:54.505Z,13.9934
2024-05-09T08:31:17.970Z,13.9805
2024-05-09T08:32:29.938Z,13.9787
2024-05-09T08:33:31.236Z,13.9794
2024-05-09T08:34:31.216Z,13.9786
2024-05-09T08:35:31.293Z,13.9754
2024-05-09T08:36:43.163Z,13.9703
2024-05-09T08:37:43.278Z,13.9650
2024-05-09T08:38:43.386Z,13.9600
2024-05-09T08:39:43.369Z,13.9542
2024-05-09T08:40:43.433Z,13.9515
2024-05-09T08:41:44.359Z,13.9587
2024-05-09T08:42:56.166Z,13.9698
2024-05-09T08:44:07.884Z,13.9829
2024-05-09T08:45:19.617Z,14.0019
2024-05-09T08:46:31.361Z,14.0337
2024-05-09T08:47:31.787Z,14.0723
2024-05-09T08:48:33.095Z,14.1088
2024-05-09T08:49:33.263Z,14.1492
2024-05-09T08:50:38.535Z,14.1913
2024-05-09T08:51:41.058Z,14.2308
2024-05-09T08:52:41.093Z,14.2607
2024-05-09T08:53:41.052Z,14.2838
2024-05-09T08:54:52.846Z,14.3097
2024-05-09T08:56:04.670Z,14.3361
2024-05-09T08:57:16.523Z,14.3578
2024-05-09T08:58:16.797Z,14.3796
2024-05-09T08:59:16.831Z,14.4011
2024-05-09T09:00:35.948Z,14.4231
2024-05-09T09:01:34.398Z,14.4477
2024-05-09T09:02:34.694Z,14.4684
2024-05-09T09:03:34.815Z,14.4880
2024-05-09T09:04:34.955Z,14.5043
2024-05-09T09:05:46.750Z,14.5199
2024-05-09T09:06:59.767Z,14.5330
2024-05-09T09:08:00.294Z,14.5395
2024-05-09T09:09:12.302Z,14.5378
2024-05-09T09:10:29.884Z,14.5259
2024-05-09T09:11:31.614Z,14.5126
2024-05-09T09:12:31.620Z,14.4971
2024-05-09T09:13:43.437Z,14.4800
2024-05-09T09:14:55.183Z,14.4622
2024-05-09T09:16:07.045Z,14.4516
2024-05-09T09:17:07.003Z,14.4470
2024-05-09T09:18:19.272Z,14.4488
2024-05-09T09:19:19.432Z,14.4531
2024-05-09T09:20:26.269Z,14.4607
2024-05-09T09:21:25.286Z,14.4722
2024-05-09T09:22:38.094Z,14.4852
2024-05-09T09:23:38.037Z,14.4992
2024-05-09T09:24:49.895Z,14.5100
2024-05-09T09:26:01.751Z,14.5157
2024-05-09T09:27:13.606Z,14.5212
2024-05-09T09:28:25.427Z,14.5354
2024-05-09T09:29:37.211Z,14.5630
2024-05-09T09:30:48.973Z,14.6042
2024-05-09T09:32:00.701Z,14.6548
2024-05-09T09:33:12.550Z,14.7107
2024-05-09T09:34:24.642Z,14.7590
2024-05-09T09:35:24.556Z,14.8039
2024-05-09T09:36:36.292Z,14.8435
2024-05-09T09:37:47.984Z,14.8810
2024-05-09T09:38:59.758Z,14.9137
2024-05-09T09:40:13.311Z,14.9384
2024-05-09T09:41:13.609Z,14.9576
2024-05-09T09:42:25.299Z,14.9738
2024-05-09T09:43:37.110Z,14.9927
2024-05-09T09:44:57.794Z,15.0094
2024-05-09T09:45:54.712Z,15.0295
2024-05-09T09:47:07.120Z,15.0477
2024-05-09T09:48:07.036Z,15.0652
2024-05-09T09:49:19.826Z,15.0865
2024-05-09T09:50:34.572Z,15.1138
2024-05-09T09:51:35.447Z,15.1446
2024-05-09T09:52:35.395Z,15.1682
2024-05-09T09:53:47.208Z,15.1910
2024-05-09T09:54:58.994Z,15.2156
2024-05-09T09:55:58.975Z,15.2410
2024-05-09T09:57:10.636Z,15.2764
2024-05-09T09:58:22.395Z,15.3274
2024-05-09T09:59:34.177Z,15.3721
2024-05-09T10:00:46.328Z,15.4069
2024-05-09T10:01:46.338Z,15.4375
2024-05-09T10:02:58.084Z,15.4734
2024-05-09T10:04:09.812Z,15.5140
2024-05-09T10:05:21.754Z,15.5529
2024-05-09T10:06:21.670Z,15.5931
2024-05-09T10:07:22.508Z,15.6326
2024-05-09T10:08:34.164Z,15.6813
2024-05-09T10:09:45.895Z,15.7319
2024-05-09T10:10:58.668Z,15.7879
2024-05-09T10:12:10.402Z,15.8414
2024-05-09T10:13:22.054Z,15.8832
2024-05-09T10:14:33.702Z,15.9175
2024-05-09T10:15:34.580Z,15.9545
2024-05-09T10:16:46.198Z,15.9994
2024-05-09T10:17:57.908Z,16.0427
2024-05-09T10:19:09.671Z,16.0868
2024-05-09T10:20:27.715Z,16.1325
2024-05-09T10:21:27.923Z,16.1749
2024-05-09T10:22:39.529Z,16.2150
2024-05-09T10:23:51.209Z,16.2625
2024-05-09T10:25:04.821Z,16.3095
2024-05-09T10:26:05.922Z,16.3567
2024-05-09T10:27:06.127Z,16.3999
2024-05-09T10:28:17.788Z,16.4504
2024-05-09T10:29:18.797Z,16.4975
2024-05-09T10:30:35.801Z,16.5446
2024-05-09T10:31:36.246Z,16.5901
2024-05-09T10:32:47.959Z,16.6337
2024-05-09T10:33:59.995Z,16.6675
2024-05-09T10:35:00.082Z,16.6980
2024-05-09T10:36:00.009Z,16.7291
2024-05-09T10:37:11.623Z,16.7568
2024-05-09T10:38:23.202Z,16.7771
2024-05-09T10:39:34.940Z,16.7940
2024-05-09T10:40:46.526Z,16.8032
2024-05-09T10:41:58.189Z,16.8020
2024-05-09T10:43:09.838Z,16.7936
2024-05-09T10:44:21.359Z,16.7764
2024-05-09T10:45:32.957Z,16.7575
2024-05-09T10:46:44.553Z,16.7406
2024-05-09T10:47:56.377Z,16.7235
2024-05-09T10:49:08.186Z,16.7029
2024-05-09T10:50:25.552Z,16.6798
2024-05-09T10:51:25.773Z,16.6540
2024-05-09T10:52:37.352Z,16.6366
2024-05-09T10:53:48.954Z,16.6237
2024-05-09T10:55:01.694Z,16.6248
2024-05-09T10:56:04.041Z,16.6392
2024-05-09T10:57:15.591Z,16.6616
2024-05-09T10:58:27.238Z,16.6964
2024-05-09T10:59:38.950Z,16.7393
2024-05-09T11:00:50.582Z,16.7861
2024-05-09T11:02:02.415Z,16.8298
2024-05-09T11:03:14.043Z,16.8678
2024-05-09T11:04:25.714Z,16.9056
2024-05-09T11:05:37.563Z,16.9510
2024-05-09T11:06:37.498Z,17.0013
2024-05-09T11:07:37.447Z,17.0476
2024-05-09T11:08:49.055Z,17.1005
2024-05-09T11:10:00.801Z,17.1546
2024-05-09T11:11:12.463Z,17.2042
2024-05-09T11:12:24.987Z,17.2534
2024-05-09T11:13:24.984Z,17.2946
2024-05-09T11:14:36.570Z,17.3283
2024-05-09T11:15:48.213Z,17.3598
2024-05-09T11:16:59.970Z,17.3844
2024-05-09T11:18:11.792Z,17.4010
2024-05-09T11:19:11.787Z,17.4120
2024-05-09T11:20:29.444Z,17.4214
2024-05-09T11:21:29.312Z,17.4278
2024-05-09T11:22:41.627Z,17.4342
2024-05-09T11:23:41.834Z,17.4791
2024-05-09T11:24:41.703Z,17.5558
2024-05-09T11:25:53.390Z,17.6316
2024-05-09T11:27:05.031Z,17.6933
2024-05-09T11:28:16.833Z,17.7466
2024-05-09T11:29:19.236Z,17.7836
2024-05-09T11:30:26.559Z,17.8049
2024-05-09T11:31:25.450Z,17.8148
2024-05-09T11:32:25.528Z,17.8146
2024-05-09T11:33:25.492Z,17.8042
2024-05-09T11:34:37.095Z,17.7916
2024-05-09T11:35:48.713Z,17.7741
2024-05-09T11:37:00.433Z,17.7553
2024-05-09T11:38:12.088Z,17.7400
2024-05-09T11:39:23.907Z,17.7262
2024-05-09T11:40:25.998Z,17.7168
2024-05-09T11:41:29.323Z,17.7137
2024-05-09T11:42:40.873Z,17.7082
2024-05-09T11:43:52.617Z,17.7082
2024-05-09T11:45:04.147Z,17.7193
2024-05-09T11:46:15.903Z,17.7432
2024-05-09T11:47:27.588Z,17.7728
2024-05-09T11:48:39.380Z,17.7984
2024-05-09T11:49:39.416Z,17.8137
2024-05-09T11:50:51.064Z,17.8209
2024-05-09T11:52:02.710Z,17.8271
2024-05-09T11:53:14.265Z,17.8264
2024-05-09T11:54:25.821Z,17.8125
2024-05-09T11:55:37.334Z,17.7864
2024-05-09T11:56:48.986Z,17.7489
2024-05-09T11:58:00.611Z,17.7063
2024-05-09T11:59:12.271Z,17.6696
2024-05-09T12:00:33.564Z,17.6393
2024-05-09T12:01:29.938Z,17.6118
2024-05-09T12:02:29.909Z,17.5908
2024-05-09T12:03:41.682Z,17.5749
2024-05-09T12:04:53.424Z,17.5641
2024-05-09T12:05:53.325Z,17.5568
2024-05-09T12:07:05.043Z,17.5519
2024-05-09T12:08:16.684Z,17.5505
2024-05-09T12:09:28.395Z,17.5497
2024-05-09T12:10:40.127Z,17.5627
2024-05-09T12:11:51.919Z,17.5954
2024-05-09T12:13:05.549Z,17.6364
2024-05-09T12:14:06.909Z,17.6749
2024-05-09T12:15:18.578Z,17.7055
2024-05-09T12:16:30.337Z,17.7304
2024-05-09T12:17:31.228Z,17.7516
2024-05-09T12:18:31.178Z,17.7657
2024-05-09T12:19:42.831Z,17.7764
2024-05-09T12:20:54.622Z,17.7904
2024-05-09T12:22:06.286Z,17.8114
2024-05-09T12:23:17.883Z,17.8330
2024-05-09T12:24:29.508Z,17.8552
2024-05-09T12:25:41.237Z,17.8759
2024-05-09T12:26:52.945Z,17.8909
2024-05-09T12:28:04.647Z,17.9116
2024-05-09T12:29:16.280Z,17.9375
2024-05-09T12:30:35.760Z,17.9638
2024-05-09T12:31:34.349Z,17.9966
2024-05-09T12:32:46.531Z,18.0235
2024-05-09T12:33:46.541Z,18.0494
2024-05-09T12:34:46.427Z,18.0944
2024-05-09T12:35:58.158Z,18.1733
2024-05-09T12:37:10.176Z,18.2404
2024-05-09T12:38:10.127Z,18.2835
2024-05-09T12:39:21.784Z,18.3075
2024-05-09T12:40:36.971Z,18.3382
2024-05-09T12:41:39.271Z,18.3823
2024-05-09T12:42:40.002Z,18.4152
2024-05-09T12:43:51.569Z,18.4432
2024-05-09T12:45:03.199Z,18.4725
2024-05-09T12:46:14.923Z,18.5013
2024-05-09T12:47:15.192Z,18.5315
2024-05-09T12:48:27.156Z,18.5704
2024-05-09T12:49:27.164Z,18.6047
2024-05-09T12:50:32.214Z,18.6295
2024-05-09T12:51:33.327Z,18.6546
2024-05-09T12:52:45.096Z,18.6740
2024-05-09T12:53:45.942Z,18.6847
2024-05-09T12:54:57.703Z,18.6909
2024-05-09T12:56:01.843Z,18.6911
2024-05-09T12:57:03.485Z,18.6844
2024-05-09T12:58:15.485Z,18.6765